sensor_id;sensor_type;location;lat;lon;timestamp;pressure;altitude;pressure_sealevel;temperature;humidity
52249;BME280;38541;48.130;8.378;2023-05-15T00:00:43;92427.53;;;8.14;76.49
52249;BME280;38541;48.130;8.378;2023-05-15T00:03:09;92434.09;;;8.17;76.77
52249;BME280;38541;48.130;8.378;2023-05-15T00:05:38;92430.44;;;8.18;76.51
52249;BME280;38541;48.130;8.378;2023-05-15T00:08:04;92429.66;;;8.18;76.84
52249;BME280;38541;48.130;8.378;2023-05-15T00:10:31;92425.19;;;8.18;77.07
52249;BME280;38541;48.130;8.378;2023-05-15T00:12:57;92425.19;;;8.18;77.12
52249;BME280;38541;48.130;8.378;2023-05-15T00:15:24;92416.84;;;8.21;76.95
52249;BME280;38541;48.130;8.378;2023-05-15T00:17:51;92417.88;;;8.20;75.93
52249;BME280;38541;48.130;8.378;2023-05-15T00:20:17;92411.06;;;8.19;75.89
52249;BME280;38541;48.130;8.378;2023-05-15T00:22:44;92415.00;;;8.17;75.47
52249;BME280;38541;48.130;8.378;2023-05-15T00:25:10;92417.88;;;8.15;75.07
52249;BME280;38541;48.130;8.378;2023-05-15T00:27:37;92414.72;;;8.13;75.74
52249;BME280;38541;48.130;8.378;2023-05-15T00:30:04;92414.16;;;8.06;76.04
52249;BME280;38541;48.130;8.378;2023-05-15T00:32:31;92414.94;;;8.06;77.14
52249;BME280;38541;48.130;8.378;2023-05-15T00:34:58;92415.50;;;8.13;77.71
52249;BME280;38541;48.130;8.378;2023-05-15T00:37:24;92417.34;;;8.13;77.84
52249;BME280;38541;48.130;8.378;2023-05-15T00:39:50;92407.69;;;8.19;78.01
52249;BME280;38541;48.130;8.378;2023-05-15T00:42:17;92416.34;;;8.24;78.24
52249;BME280;38541;48.130;8.378;2023-05-15T00:44:45;92409.50;;;8.23;78.58
52249;BME280;38541;48.130;8.378;2023-05-15T00:47:13;92405.84;;;8.19;78.11
52249;BME280;38541;48.130;8.378;2023-05-15T00:49:40;92406.59;;;8.14;77.91
52249;BME280;38541;48.130;8.378;2023-05-15T00:52:07;92410.53;;;8.12;77.70
52249;BME280;38541;48.130;8.378;2023-05-15T00:54:34;92410.25;;;8.08;78.33
52249;BME280;38541;48.130;8.378;2023-05-15T00:57:04;92412.34;;;8.11;78.21
52249;BME280;38541;48.130;8.378;2023-05-15T00:59:31;92413.91;;;8.12;77.80
52249;BME280;38541;48.130;8.378;2023-05-15T01:01:58;92412.38;;;8.17;77.72
52249;BME280;38541;48.130;8.378;2023-05-15T01:04:25;92414.50;;;8.25;78.93
52249;BME280;38541;48.130;8.378;2023-05-15T01:06:51;92405.59;;;8.26;79.76
52249;BME280;38541;48.130;8.378;2023-05-15T01:09:22;92401.19;;;8.32;80.35
52249;BME280;38541;48.130;8.378;2023-05-15T01:11:53;92405.41;;;8.38;80.67
52249;BME280;38541;48.130;8.378;2023-05-15T01:14:20;92408.06;;;8.48;80.46
52249;BME280;38541;48.130;8.378;2023-05-15T01:16:46;92404.41;;;8.49;80.12
52249;BME280;38541;48.130;8.378;2023-05-15T01:19:13;92399.97;;;8.50;81.00
52249;BME280;38541;48.130;8.378;2023-05-15T01:21:56;92402.09;;;8.53;81.35
52249;BME280;38541;48.130;8.378;2023-05-15T01:24:44;92403.06;;;8.47;80.88
52249;BME280;38541;48.130;8.378;2023-05-15T01:27:35;92406.47;;;8.47;80.98
52249;BME280;38541;48.130;8.378;2023-05-15T01:33:02;92400.19;;;8.48;81.56
52249;BME280;38541;48.130;8.378;2023-05-15T01:35:34;92407.00;;;8.44;80.74
52249;BME280;38541;48.130;8.378;2023-05-15T01:40:56;92409.97;;;8.63;80.78
52249;BME280;38541;48.130;8.378;2023-05-15T01:43:27;92412.88;;;8.72;81.25
52249;BME280;38541;48.130;8.378;2023-05-15T01:45:55;92415.19;;;8.63;81.45
52249;BME280;38541;48.130;8.378;2023-05-15T01:48:24;92418.09;;;8.67;82.17
52249;BME280;38541;48.130;8.378;2023-05-15T01:51:00;92413.66;;;8.78;82.40
52249;BME280;38541;48.130;8.378;2023-05-15T01:53:29;92408.72;;;8.81;82.08
52249;BME280;38541;48.130;8.378;2023-05-15T01:55:58;92401.34;;;8.78;81.53
52249;BME280;38541;48.130;8.378;2023-05-15T01:58:25;92402.38;;;8.77;81.15
52249;BME280;38541;48.130;8.378;2023-05-15T02:00:53;92406.84;;;8.77;81.27
52249;BME280;38541;48.130;8.378;2023-05-15T02:03:21;92407.38;;;8.79;81.36
52249;BME280;38541;48.130;8.378;2023-05-15T02:05:49;92410.25;;;8.72;81.93
52249;BME280;38541;48.130;8.378;2023-05-15T02:08:17;92403.69;;;8.69;82.80
52249;BME280;38541;48.130;8.378;2023-05-15T02:10:45;92410.75;;;8.69;82.42
52249;BME280;38541;48.130;8.378;2023-05-15T02:13:12;92401.88;;;8.70;82.56
52249;BME280;38541;48.130;8.378;2023-05-15T02:15:39;92395.34;;;8.73;82.06
52249;BME280;38541;48.130;8.378;2023-05-15T02:18:05;92396.09;;;8.68;81.63
52249;BME280;38541;48.130;8.378;2023-05-15T02:20:32;92399.72;;;8.62;81.78
52249;BME280;38541;48.130;8.378;2023-05-15T02:22:58;92401.56;;;8.61;82.01
52249;BME280;38541;48.130;8.378;2023-05-15T02:30:05;92395.28;;;8.57;81.53
52249;BME280;38541;48.130;8.378;2023-05-15T02:35:33;92378.00;;;8.56;81.56
52249;BME280;38541;48.130;8.378;2023-05-15T02:38:07;92376.66;;;8.48;81.83
52249;BME280;38541;48.130;8.378;2023-05-15T02:40:35;92379.22;;;8.43;82.39
52249;BME280;38541;48.130;8.378;2023-05-15T02:43:04;92370.34;;;8.44;83.33
52249;BME280;38541;48.130;8.378;2023-05-15T02:45:31;92371.94;;;8.45;83.21
52249;BME280;38541;48.130;8.378;2023-05-15T02:47:58;92370.34;;;8.44;83.03
52249;BME280;38541;48.130;8.378;2023-05-15T02:50:25;92374.53;;;8.45;82.77
52249;BME280;38541;48.130;8.378;2023-05-15T02:53:03;92376.88;;;8.36;82.99
52249;BME280;38541;48.130;8.378;2023-05-15T02:55:30;92364.56;;;8.42;83.13
52249;BME280;38541;48.130;8.378;2023-05-15T02:57:58;92374.03;;;8.48;83.27
52249;BME280;38541;48.130;8.378;2023-05-15T03:00:24;92374.84;;;8.54;82.79
52249;BME280;38541;48.130;8.378;2023-05-15T03:02:51;92381.38;;;8.51;82.99
52249;BME280;38541;48.130;8.378;2023-05-15T03:05:18;92375.91;;;8.58;82.39
52249;BME280;38541;48.130;8.378;2023-05-15T03:07:45;92374.59;;;8.61;82.57
52249;BME280;38541;48.130;8.378;2023-05-15T03:10:11;92381.69;;;8.60;82.14
52249;BME280;38541;48.130;8.378;2023-05-15T03:12:38;92380.09;;;8.59;82.46
52249;BME280;38541;48.130;8.378;2023-05-15T03:15:05;92380.38;;;8.63;82.41
52249;BME280;38541;48.130;8.378;2023-05-15T03:17:32;92385.06;;;8.61;82.42
52249;BME280;38541;48.130;8.378;2023-05-15T03:19:59;92376.72;;;8.64;82.27
52249;BME280;38541;48.130;8.378;2023-05-15T03:22:25;92375.91;;;8.68;82.28
52249;BME280;38541;48.130;8.378;2023-05-15T03:24:52;92378.00;;;8.66;81.79
52249;BME280;38541;48.130;8.378;2023-05-15T03:27:18;92364.16;;;8.66;82.11
52249;BME280;38541;48.130;8.378;2023-05-15T03:29:45;92370.69;;;8.63;81.57
52249;BME280;38541;48.130;8.378;2023-05-15T03:32:11;92369.38;;;8.66;82.24
52249;BME280;38541;48.130;8.378;2023-05-15T03:34:38;92364.41;;;8.64;81.72
52249;BME280;38541;48.130;8.378;2023-05-15T03:37:06;92368.81;;;8.59;81.94
52249;BME280;38541;48.130;8.378;2023-05-15T03:39:33;92374.88;;;8.59;82.07
52249;BME280;38541;48.130;8.378;2023-05-15T03:41:59;92368.81;;;8.59;82.08
52249;BME280;38541;48.130;8.378;2023-05-15T03:44:26;92374.09;;;8.64;81.74
52249;BME280;38541;48.130;8.378;2023-05-15T03:46:52;92373.56;;;8.67;81.38
52249;BME280;38541;48.130;8.378;2023-05-15T03:49:18;92371.97;;;8.61;81.63
52249;BME280;38541;48.130;8.378;2023-05-15T03:51:45;92373.53;;;8.62;81.33
52249;BME280;38541;48.130;8.378;2023-05-15T03:54:12;92369.88;;;8.57;81.38
52249;BME280;38541;48.130;8.378;2023-05-15T03:56:38;92367.25;;;8.57;81.37
52249;BME280;38541;48.130;8.378;2023-05-15T03:59:05;92368.81;;;8.59;81.25
52249;BME280;38541;48.130;8.378;2023-05-15T04:01:31;92370.94;;;8.62;81.64
52249;BME280;38541;48.130;8.378;2023-05-15T04:04:02;92369.09;;;8.57;81.31
52249;BME280;38541;48.130;8.378;2023-05-15T04:06:29;92365.69;;;8.51;81.47
52249;BME280;38541;48.130;8.378;2023-05-15T04:08:55;92366.72;;;8.50;81.58
52249;BME280;38541;48.130;8.378;2023-05-15T04:11:22;92370.41;;;8.54;81.59
52249;BME280;38541;48.130;8.378;2023-05-15T04:13:49;92366.72;;;8.55;81.59
52249;BME280;38541;48.130;8.378;2023-05-15T04:16:15;92366.72;;;8.55;81.65
52249;BME280;38541;48.130;8.378;2023-05-15T04:18:42;92365.69;;;8.62;81.25
52249;BME280;38541;48.130;8.378;2023-05-15T04:21:08;92367.53;;;8.66;81.55
52249;BME280;38541;48.130;8.378;2023-05-15T04:23:34;92361.00;;;8.69;81.50
52249;BME280;38541;48.130;8.378;2023-05-15T04:26:01;92366.53;;;8.73;81.72
52249;BME280;38541;48.130;8.378;2023-05-15T04:28:27;92368.09;;;8.74;81.39
52249;BME280;38541;48.130;8.378;2023-05-15T04:30:55;92366.78;;;8.76;81.15
52249;BME280;38541;48.130;8.378;2023-05-15T04:33:24;92371.47;;;8.79;81.61
52249;BME280;38541;48.130;8.378;2023-05-15T04:35:50;92373.09;;;8.91;81.32
52249;BME280;38541;48.130;8.378;2023-05-15T04:38:17;92366.78;;;8.97;80.83
52249;BME280;38541;48.130;8.378;2023-05-15T04:40:44;92369.69;;;8.95;81.16
52249;BME280;38541;48.130;8.378;2023-05-15T04:43:11;92374.94;;;9.01;81.03
52249;BME280;38541;48.130;8.378;2023-05-15T04:45:37;92369.44;;;9.02;80.51
52249;BME280;38541;48.130;8.378;2023-05-15T04:48:04;92368.91;;;9.10;80.95
52249;BME280;38541;48.130;8.378;2023-05-15T04:50:30;92368.91;;;9.21;81.17
52249;BME280;38541;48.130;8.378;2023-05-15T04:52:57;92368.91;;;9.26;80.83
52249;BME280;38541;48.130;8.378;2023-05-15T04:55:23;92375.19;;;9.30;80.89
52249;BME280;38541;48.130;8.378;2023-05-15T04:57:50;92379.66;;;9.30;80.77
52249;BME280;38541;48.130;8.378;2023-05-15T05:00:17;92381.50;;;9.39;81.06
52249;BME280;38541;48.130;8.378;2023-05-15T05:02:43;92379.13;;;9.43;80.76
52249;BME280;38541;48.130;8.378;2023-05-15T05:05:10;92383.03;;;9.51;80.38
52249;BME280;38541;48.130;8.378;2023-05-15T05:07:36;92385.13;;;9.54;80.41
52249;BME280;38541;48.130;8.378;2023-05-15T05:10:04;92388.28;;;9.61;80.20
52249;BME280;38541;48.130;8.378;2023-05-15T05:12:30;92389.34;;;9.55;80.03
52249;BME280;38541;48.130;8.378;2023-05-15T05:14:57;92391.44;;;9.53;79.90
52249;BME280;38541;48.130;8.378;2023-05-15T05:17:23;92383.56;;;9.53;79.67
52249;BME280;38541;48.130;8.378;2023-05-15T05:19:50;92391.44;;;9.58;80.05
52249;BME280;38541;48.130;8.378;2023-05-15T05:22:16;92395.09;;;9.62;80.17
52249;BME280;38541;48.130;8.378;2023-05-15T05:24:43;92388.78;;;9.68;80.20
52249;BME280;38541;48.130;8.378;2023-05-15T05:27:09;92390.38;;;9.80;80.00
52249;BME280;38541;48.130;8.378;2023-05-15T05:29:36;92385.63;;;9.87;79.78
52249;BME280;38541;48.130;8.378;2023-05-15T05:32:03;92387.97;;;9.94;79.56
52249;BME280;38541;48.130;8.378;2023-05-15T05:34:29;92395.59;;;9.95;79.72
52249;BME280;38541;48.130;8.378;2023-05-15T05:36:56;92398.72;;;9.97;79.11
52249;BME280;38541;48.130;8.378;2023-05-15T05:39:22;92398.22;;;9.95;78.95
52249;BME280;38541;48.130;8.378;2023-05-15T05:41:49;92393.47;;;10.03;78.74
52249;BME280;38541;48.130;8.378;2023-05-15T05:44:15;92389.25;;;10.07;78.67
52249;BME280;38541;48.130;8.378;2023-05-15T05:46:42;92388.97;;;10.08;78.30
52249;BME280;38541;48.130;8.378;2023-05-15T05:49:08;92389.22;;;10.12;78.56
52249;BME280;38541;48.130;8.378;2023-05-15T05:51:35;92391.03;;;10.17;78.64
52249;BME280;38541;48.130;8.378;2023-05-15T05:54:04;92389.72;;;10.24;77.85
52249;BME280;38541;48.130;8.378;2023-05-15T05:56:31;92388.63;;;10.31;78.01
52249;BME280;38541;48.130;8.378;2023-05-15T05:58:57;92392.53;;;10.38;77.79
52249;BME280;38541;48.130;8.378;2023-05-15T06:01:27;92387.53;;;10.47;77.75
52249;BME280;38541;48.130;8.378;2023-05-15T06:03:53;92394.06;;;10.55;77.27
52249;BME280;38541;48.130;8.378;2023-05-15T06:06:21;92391.13;;;10.72;77.18
52249;BME280;38541;48.130;8.378;2023-05-15T06:08:47;92395.53;;;10.77;77.10
52249;BME280;38541;48.130;8.378;2023-05-15T06:11:14;92397.31;;;10.92;76.82
52249;BME280;38541;48.130;8.378;2023-05-15T06:13:41;92396.97;;;10.98;75.99
52249;BME280;38541;48.130;8.378;2023-05-15T06:16:08;92389.34;;;11.02;75.48
52249;BME280;38541;48.130;8.378;2023-05-15T06:18:35;92393.28;;;11.05;75.07
52249;BME280;38541;48.130;8.378;2023-05-15T06:21:01;92401.97;;;11.00;74.10
52249;BME280;38541;48.130;8.378;2023-05-15T06:23:28;92401.72;;;11.02;74.48
52249;BME280;38541;48.130;8.378;2023-05-15T06:25:54;92402.53;;;10.97;73.81
52249;BME280;38541;48.130;8.378;2023-05-15T06:28:21;92405.13;;;11.02;73.42
52249;BME280;38541;48.130;8.378;2023-05-15T06:30:48;92414.00;;;11.11;74.08
52249;BME280;38541;48.130;8.378;2023-05-15T06:33:14;92401.84;;;11.21;73.60
52249;BME280;38541;48.130;8.378;2023-05-15T06:35:41;92410.72;;;11.30;73.17
52249;BME280;38541;48.130;8.378;2023-05-15T06:38:07;92408.88;;;11.31;73.36
52249;BME280;38541;48.130;8.378;2023-05-15T06:40:34;92407.31;;;11.30;73.29
52249;BME280;38541;48.130;8.378;2023-05-15T06:43:00;92406.50;;;11.34;73.93
52249;BME280;38541;48.130;8.378;2023-05-15T06:45:27;92416.38;;;11.48;74.23
52249;BME280;38541;48.130;8.378;2023-05-15T06:47:54;92410.47;;;11.61;74.09
52249;BME280;38541;48.130;8.378;2023-05-15T06:50:20;92412.53;;;11.69;74.34
52249;BME280;38541;48.130;8.378;2023-05-15T06:52:47;92408.34;;;11.63;73.60
52249;BME280;38541;48.130;8.378;2023-05-15T06:55:13;92411.47;;;11.65;73.68
52249;BME280;38541;48.130;8.378;2023-05-15T06:57:40;92409.59;;;11.71;73.34
52249;BME280;38541;48.130;8.378;2023-05-15T07:00:06;92412.41;;;11.80;72.78
52249;BME280;38541;48.130;8.378;2023-05-15T07:02:33;92406.19;;;11.70;71.52
52249;BME280;38541;48.130;8.378;2023-05-15T07:04:59;92416.63;;;11.81;73.05
52249;BME280;38541;48.130;8.378;2023-05-15T07:07:26;92414.69;;;11.92;71.33
52249;BME280;38541;48.130;8.378;2023-05-15T07:09:52;92404.31;;;12.01;71.48
52249;BME280;38541;48.130;8.378;2023-05-15T07:12:19;92407.06;;;11.90;70.83
52249;BME280;38541;48.130;8.378;2023-05-15T07:14:45;92410.78;;;11.89;71.43
52249;BME280;38541;48.130;8.378;2023-05-15T07:17:12;92410.97;;;11.93;70.14
52249;BME280;38541;48.130;8.378;2023-05-15T07:19:39;92411.50;;;11.95;70.51
52249;BME280;38541;48.130;8.378;2023-05-15T07:22:05;92413.34;;;11.94;70.09
52249;BME280;38541;48.130;8.378;2023-05-15T07:24:31;92413.28;;;12.05;70.15
52249;BME280;38541;48.130;8.378;2023-05-15T07:26:58;92422.25;;;12.04;69.43
52249;BME280;38541;48.130;8.378;2023-05-15T07:29:24;92408.56;;;12.02;70.09
52249;BME280;38541;48.130;8.378;2023-05-15T07:31:51;92413.97;;;12.16;70.24
52249;BME280;38541;48.130;8.378;2023-05-15T07:34:18;92417.69;;;12.09;69.84
52249;BME280;38541;48.130;8.378;2023-05-15T07:36:44;92406.44;;;12.04;69.60
52249;BME280;38541;48.130;8.378;2023-05-15T07:39:11;92412.59;;;12.18;69.49
52249;BME280;38541;48.130;8.378;2023-05-15T07:41:37;92413.41;;;12.43;70.64
52249;BME280;38541;48.130;8.378;2023-05-15T07:44:04;92406.25;;;12.68;70.96
52249;BME280;38541;48.130;8.378;2023-05-15T07:46:32;92413.25;;;12.78;69.69
52249;BME280;38541;48.130;8.378;2023-05-15T07:48:58;92423.06;;;12.72;69.66
52249;BME280;38541;48.130;8.378;2023-05-15T07:51:25;92415.03;;;13.02;69.47
52249;BME280;38541;48.130;8.378;2023-05-15T07:53:51;92408.69;;;13.22;68.53
52249;BME280;38541;48.130;8.378;2023-05-15T07:56:18;92407.69;;;13.37;67.22
52249;BME280;38541;48.130;8.378;2023-05-15T07:58:44;92409.06;;;13.53;67.71
52249;BME280;38541;48.130;8.378;2023-05-15T08:01:11;92405.91;;;13.32;66.26
52249;BME280;38541;48.130;8.378;2023-05-15T08:03:37;92408.25;;;13.53;67.09
52249;BME280;38541;48.130;8.378;2023-05-15T08:06:04;92404.34;;;13.50;65.28
52249;BME280;38541;48.130;8.378;2023-05-15T08:08:32;92406.28;;;13.45;64.96
52249;BME280;38541;48.130;8.378;2023-05-15T08:10:59;92408.66;;;13.41;64.39
52249;BME280;38541;48.130;8.378;2023-05-15T08:13:25;92412.69;;;13.19;63.28
52249;BME280;38541;48.130;8.378;2023-05-15T08:15:52;92411.69;;;13.15;63.57
52249;BME280;38541;48.130;8.378;2023-05-15T08:18:18;92408.41;;;13.23;64.13
52249;BME280;38541;48.130;8.378;2023-05-15T08:20:45;92410.19;;;13.28;64.50
52249;BME280;38541;48.130;8.378;2023-05-15T08:23:11;92415.47;;;13.28;64.49
52249;BME280;38541;48.130;8.378;2023-05-15T08:25:40;92414.75;;;13.41;64.25
52249;BME280;38541;48.130;8.378;2023-05-15T08:28:07;92410.97;;;13.67;64.33
52249;BME280;38541;48.130;8.378;2023-05-15T08:30:33;92410.91;;;13.86;63.83
52249;BME280;38541;48.130;8.378;2023-05-15T08:33:01;92405.03;;;13.89;63.54
52249;BME280;38541;48.130;8.378;2023-05-15T08:35:27;92398.28;;;13.97;63.37
52249;BME280;38541;48.130;8.378;2023-05-15T08:37:54;92404.19;;;14.08;62.73
52249;BME280;38541;48.130;8.378;2023-05-15T08:40:21;92403.19;;;14.04;61.37
52249;BME280;38541;48.130;8.378;2023-05-15T08:43:06;92405.84;;;14.04;60.80
52249;BME280;38541;48.130;8.378;2023-05-15T08:45:36;92405.34;;;14.02;60.54
52249;BME280;38541;48.130;8.378;2023-05-15T08:48:08;92408.47;;;14.04;60.60
52249;BME280;38541;48.130;8.378;2023-05-15T08:50:37;92399.91;;;14.12;60.18
52249;BME280;38541;48.130;8.378;2023-05-15T08:53:04;92399.38;;;14.10;59.37
52249;BME280;38541;48.130;8.378;2023-05-15T08:55:31;92400.06;;;14.16;60.57
52249;BME280;38541;48.130;8.378;2023-05-15T08:57:58;92401.13;;;13.87;59.94
52249;BME280;38541;48.130;8.378;2023-05-15T09:00:25;92397.34;;;13.74;59.37
52249;BME280;38541;48.130;8.378;2023-05-15T09:02:52;92396.81;;;13.77;60.64
52249;BME280;38541;48.130;8.378;2023-05-15T09:05:19;92395.66;;;13.64;60.42
52249;BME280;38541;48.130;8.378;2023-05-15T09:07:46;92393.94;;;13.73;61.89
52249;BME280;38541;48.130;8.378;2023-05-15T09:10:13;92387.03;;;13.91;61.05
52249;BME280;38541;48.130;8.378;2023-05-15T09:12:41;92393.59;;;13.94;60.75
52249;BME280;38541;48.130;8.378;2023-05-15T09:15:15;92392.84;;;13.93;59.96
52249;BME280;38541;48.130;8.378;2023-05-15T09:17:44;92397.53;;;14.24;60.84
52249;BME280;38541;48.130;8.378;2023-05-15T09:20:24;92392.94;;;14.16;58.83
52249;BME280;38541;48.130;8.378;2023-05-15T09:22:52;92390.09;;;13.98;58.80
52249;BME280;38541;48.130;8.378;2023-05-15T09:25:38;92383.66;;;14.33;60.05
52249;BME280;38541;48.130;8.378;2023-05-15T09:28:08;92380.81;;;14.43;60.25
52249;BME280;38541;48.130;8.378;2023-05-15T09:30:37;92373.53;;;14.77;59.79
52249;BME280;38541;48.130;8.378;2023-05-15T09:33:04;92376.59;;;14.70;59.38
52249;BME280;38541;48.130;8.378;2023-05-15T09:35:37;92379.31;;;14.65;59.70
52249;BME280;38541;48.130;8.378;2023-05-15T09:38:10;92376.19;;;14.63;59.79
52249;BME280;38541;48.130;8.378;2023-05-15T09:40:38;92372.56;;;14.73;58.55
52249;BME280;38541;48.130;8.378;2023-05-15T09:43:09;92373.25;;;14.78;59.06
52249;BME280;38541;48.130;8.378;2023-05-15T09:45:35;92377.56;;;14.60;58.45
52249;BME280;38541;48.130;8.378;2023-05-15T09:48:06;92382.19;;;14.54;59.87
52249;BME280;38541;48.130;8.378;2023-05-15T09:50:38;92377.94;;;14.67;58.84
52249;BME280;38541;48.130;8.378;2023-05-15T09:53:05;92375.78;;;14.83;59.35
52249;BME280;38541;48.130;8.378;2023-05-15T09:55:33;92368.09;;;15.33;58.58
52249;BME280;38541;48.130;8.378;2023-05-15T09:58:20;92366.56;;;15.63;56.72
52249;BME280;38541;48.130;8.378;2023-05-15T10:00:46;92375.25;;;15.55;55.46
52249;BME280;38541;48.130;8.378;2023-05-15T10:03:17;92362.47;;;15.80;56.37
52249;BME280;38541;48.130;8.378;2023-05-15T10:05:44;92364.75;;;15.95;55.43
52249;BME280;38541;48.130;8.378;2023-05-15T10:08:11;92358.28;;;15.88;53.35
52249;BME280;38541;48.130;8.378;2023-05-15T10:10:37;92360.31;;;15.59;54.47
52249;BME280;38541;48.130;8.378;2023-05-15T10:13:06;92369.00;;;15.28;56.77
52249;BME280;38541;48.130;8.378;2023-05-15T10:15:33;92369.34;;;15.12;56.71
52249;BME280;38541;48.130;8.378;2023-05-15T10:18:02;92368.03;;;15.24;55.11
52249;BME280;38541;48.130;8.378;2023-05-15T10:20:29;92367.66;;;15.17;55.87
52249;BME280;38541;48.130;8.378;2023-05-15T10:22:58;92360.41;;;15.22;54.58
52249;BME280;38541;48.130;8.378;2023-05-15T10:27:55;92350.91;;;15.76;53.51
52249;BME280;38541;48.130;8.378;2023-05-15T10:30:23;92343.31;;;16.06;53.61
52249;BME280;38541;48.130;8.378;2023-05-15T10:32:51;92340.91;;;16.36;51.50
52249;BME280;38541;48.130;8.378;2023-05-15T10:35:18;92345.44;;;16.35;52.16
52249;BME280;38541;48.130;8.378;2023-05-15T10:37:48;92348.91;;;16.04;52.50
52249;BME280;38541;48.130;8.378;2023-05-15T10:40:16;92346.94;;;15.87;53.94
52249;BME280;38541;48.130;8.378;2023-05-15T10:42:44;92348.75;;;15.78;53.69
52249;BME280;38541;48.130;8.378;2023-05-15T10:45:11;92348.25;;;15.98;51.66
52249;BME280;38541;48.130;8.378;2023-05-15T10:47:39;92348.16;;;16.13;52.15
52249;BME280;38541;48.130;8.378;2023-05-15T10:50:08;92357.91;;;16.44;52.20
52249;BME280;38541;48.130;8.378;2023-05-15T10:52:36;92349.69;;;16.45;52.87
52249;BME280;38541;48.130;8.378;2023-05-15T10:55:16;92352.91;;;16.33;53.50
52249;BME280;38541;48.130;8.378;2023-05-15T10:57:46;92353.53;;;16.39;53.62
52249;BME280;38541;48.130;8.378;2023-05-15T11:02:50;92355.78;;;16.14;53.65
52249;BME280;38541;48.130;8.378;2023-05-15T11:05:19;92356.88;;;15.27;53.17
52249;BME280;38541;48.130;8.378;2023-05-15T11:08:27;92353.47;;;15.35;53.05
52249;BME280;38541;48.130;8.378;2023-05-15T11:10:52;92356.78;;;15.41;54.89
52249;BME280;38541;48.130;8.378;2023-05-15T11:13:19;92348.53;;;15.65;56.44
52249;BME280;38541;48.130;8.378;2023-05-15T11:15:46;92349.09;;;15.85;57.99
52249;BME280;38541;48.130;8.378;2023-05-15T11:18:14;92348.47;;;16.11;54.27
52249;BME280;38541;48.130;8.378;2023-05-15T11:23:20;92351.28;;;15.83;54.72
52249;BME280;38541;48.130;8.378;2023-05-15T11:25:56;92367.75;;;15.80;54.59
52249;BME280;38541;48.130;8.378;2023-05-15T11:28:24;92380.56;;;15.32;53.50
52249;BME280;38541;48.130;8.378;2023-05-15T11:30:53;92378.19;;;14.71;55.57
52249;BME280;38541;48.130;8.378;2023-05-15T11:33:28;92373.94;;;14.70;55.39
52249;BME280;38541;48.130;8.378;2023-05-15T11:35:58;92373.16;;;14.27;54.95
52249;BME280;38541;48.130;8.378;2023-05-15T11:38:25;92373.81;;;13.91;57.03
52249;BME280;38541;48.130;8.378;2023-05-15T11:40:54;92373.75;;;13.96;60.20
52249;BME280;38541;48.130;8.378;2023-05-15T11:45:54;92356.25;;;14.01;62.24
52249;BME280;38541;48.130;8.378;2023-05-15T11:48:22;92350.78;;;14.25;62.62
52249;BME280;38541;48.130;8.378;2023-05-15T11:50:49;92356.03;;;14.53;61.97
52249;BME280;38541;48.130;8.378;2023-05-15T11:53:19;92354.59;;;14.33;61.86
52249;BME280;38541;48.130;8.378;2023-05-15T11:55:46;92359.75;;;14.52;62.50
52249;BME280;38541;48.130;8.378;2023-05-15T11:58:14;92357.56;;;14.68;63.64
52249;BME280;38541;48.130;8.378;2023-05-15T12:00:43;92350.94;;;14.57;62.20
52249;BME280;38541;48.130;8.378;2023-05-15T12:03:13;92355.81;;;14.77;62.09
52249;BME280;38541;48.130;8.378;2023-05-15T12:05:40;92358.66;;;15.18;62.28
52249;BME280;38541;48.130;8.378;2023-05-15T12:08:23;92352.00;;;15.06;61.39
52249;BME280;38541;48.130;8.378;2023-05-15T12:10:49;92348.41;;;15.25;62.06
52249;BME280;38541;48.130;8.378;2023-05-15T12:13:17;92352.81;;;15.30;60.50
52249;BME280;38541;48.130;8.378;2023-05-15T12:15:45;92347.81;;;15.51;61.39
52249;BME280;38541;48.130;8.378;2023-05-15T12:18:12;92343.44;;;15.78;60.97
52249;BME280;38541;48.130;8.378;2023-05-15T12:20:40;92341.22;;;15.94;61.90
52249;BME280;38541;48.130;8.378;2023-05-15T12:23:16;92341.34;;;16.29;61.22
52249;BME280;38541;48.130;8.378;2023-05-15T12:25:44;92338.94;;;16.68;60.42
52249;BME280;38541;48.130;8.378;2023-05-15T12:28:12;92336.97;;;16.91;58.79
52249;BME280;38541;48.130;8.378;2023-05-15T12:30:40;92335.44;;;16.99;57.33
52249;BME280;38541;48.130;8.378;2023-05-15T12:33:08;92339.78;;;17.30;57.67
52249;BME280;38541;48.130;8.378;2023-05-15T12:35:40;92334.44;;;17.65;55.70
52249;BME280;38541;48.130;8.378;2023-05-15T12:38:08;92335.75;;;17.89;54.35
52249;BME280;38541;48.130;8.378;2023-05-15T12:40:38;92341.44;;;17.70;52.23
52249;BME280;38541;48.130;8.378;2023-05-15T12:43:06;92346.00;;;17.61;51.05
52249;BME280;38541;48.130;8.378;2023-05-15T12:45:33;92343.19;;;17.57;55.20
52249;BME280;38541;48.130;8.378;2023-05-15T12:48:04;92336.47;;;17.42;54.59
52249;BME280;38541;48.130;8.378;2023-05-15T12:50:32;92333.53;;;17.35;53.19
52249;BME280;38541;48.130;8.378;2023-05-15T12:53:03;92327.94;;;17.36;54.17
52249;BME280;38541;48.130;8.378;2023-05-15T12:55:34;92331.66;;;17.53;53.22
52249;BME280;38541;48.130;8.378;2023-05-15T12:58:03;92336.28;;;17.74;53.69
52249;BME280;38541;48.130;8.378;2023-05-15T13:00:35;92339.75;;;17.48;50.35
52249;BME280;38541;48.130;8.378;2023-05-15T13:03:02;92336.78;;;17.67;52.42
52249;BME280;38541;48.130;8.378;2023-05-15T13:05:34;92334.97;;;17.97;52.75
52249;BME280;38541;48.130;8.378;2023-05-15T13:08:01;92326.66;;;18.08;51.55
52249;BME280;38541;48.130;8.378;2023-05-15T13:10:31;92323.59;;;18.36;50.15
52249;BME280;38541;48.130;8.378;2023-05-15T13:12:58;92327.19;;;19.13;47.59
52249;BME280;38541;48.130;8.378;2023-05-15T13:15:29;92324.34;;;19.51;46.39
52249;BME280;38541;48.130;8.378;2023-05-15T13:18:16;92321.22;;;19.16;45.34
52249;BME280;38541;48.130;8.378;2023-05-15T13:20:45;92324.91;;;19.45;46.32
52249;BME280;38541;48.130;8.378;2023-05-15T13:23:15;92321.75;;;21.54;43.28
52249;BME280;38541;48.130;8.378;2023-05-15T13:25:43;92316.34;;;22.11;42.06
52249;BME280;38541;48.130;8.378;2023-05-15T13:28:10;92323.47;;;21.75;41.67
52249;BME280;38541;48.130;8.378;2023-05-15T13:30:38;92322.84;;;20.34;43.65
52249;BME280;38541;48.130;8.378;2023-05-15T13:33:08;92321.38;;;19.32;45.42